Thunder radar more information blitzortung!


Radar de pluja more information rain snow radar


Visita la nostra xarxa de llocs de meteo:

Template documentation
and downloads

And another site



No particular awareness of the weather is required.    There are no Weather-warnings

Pagina Historial Weather Underground text

Diari Resum Juny 22, 2017 Unitats:  Imperial    Mètric   Tant
« Previous Dia
SegĂźent Dia »
Diari Setmana Mensual Anual Personalitzada
  Maxima: Minima: Media:
Temperatura: TemperatureC °F 22.3 °F 29.6 °F
Punt de rosada: DewpointC °F 11.7 °F 14.2 °F
Humitat: Humidity % 30 % 40 %
Wind Speed: WindSpeedKMH mph 0.0 mph 9.2 mph
RĂ fegues de vent: WindSpeedGustKMH mph - -
Vent:- - SW
Pression baro: PressurehPa in 1014.8 in -
Precipitacions: 0.0 in    
Historical Graphs
 
 
Dades de taula per Juny 22, 2017
Temps Temperatura Punt de rosada Pression baro Vent Wind Speed RĂ fegues de vent Humitat Rainfall Rate (Hourly)
TemperatureC °F DewpointC °F PressurehPa in Calm     Humidity % HourlyPrecipMM in
00:01 24.1 °F 14.8 °F 1015.8 in West 5.6 mph 5.6 mph 56 % 0.0 in
04:55 27.4 °F 17.8 °F 1014.8 in SW 1.6 mph 6.4 mph 56 % 0.0 in
05:05 28.1 °F 18.2 °F 1014.8 in Calm   4.8 mph 55 % 0.0 in
05:15 29.0 °F 18.4 °F 1014.8 in SSW 1.6 mph 3.2 mph 53 % 0.0 in
05:25 29.3 °F 18.1 °F 1014.8 in SW 1.6 mph 3.2 mph 51 % 0.0 in
05:35 29.2 °F 18.0 °F 1014.8 in SW 3.2 mph 4.8 mph 51 % 0.0 in
10:38 29.3 °F 17.5 °F 1015.8 in SW 7.4 mph 7.4 mph 49 % 0.0 in
10:43 29.9 °F 18.1 °F 1015.8 in SSW 5.6 mph 5.6 mph 49 % 0.0 in
10:48 30.1 °F 17.9 °F 1015.8 in WSW 5.6 mph 5.6 mph 48 % 0.0 in
10:53 30.4 °F 18.2 °F 1015.8 in SW 7.4 mph 7.4 mph 48 % 0.0 in
10:58 30.7 °F 18.4 °F 1016.8 in SSW 5.6 mph 5.6 mph 48 % 0.0 in
11:03 31.0 °F 18.0 °F 1016.8 in SSE 6.9 mph 6.9 mph 46 % 0.0 in
11:08 31.0 °F 18.0 °F 1016.8 in WSW 5.6 mph 5.6 mph 46 % 0.0 in
11:13 31.0 °F 17.7 °F 1015.8 in SSE 7.4 mph 7.4 mph 45 % 0.0 in
11:18 31.9 °F 18.1 °F 1015.8 in SSW 5.6 mph 5.6 mph 44 % 0.0 in
11:23 32.3 °F 18.1 °F 1015.8 in WSW 7.4 mph 7.4 mph 43 % 0.0 in
11:28 32.7 °F 18.5 °F 1015.8 in West 3.7 mph 3.7 mph 43 % 0.0 in
11:33 33.0 °F 18.0 °F 1015.8 in SW 8.7 mph 8.7 mph 41 % 0.0 in
11:38 33.2 °F 18.2 °F 1015.8 in SW 3.7 mph 3.7 mph 41 % 0.0 in
11:43 33.0 °F 17.6 °F 1015.8 in SSW 4.2 mph 4.2 mph 40 % 0.0 in
11:48 33.2 °F 17.8 °F 1015.8 in West 5.6 mph 5.6 mph 40 % 0.0 in
11:53 33.5 °F 17.7 °F 1015.8 in SSW 7.6 mph 7.6 mph 39 % 0.0 in
11:58 33.5 °F 17.2 °F 1014.8 in NW 7.4 mph 7.4 mph 38 % 0.0 in
12:03 33.7 °F 17.4 °F 1014.8 in West 9.3 mph 9.3 mph 38 % 0.0 in
12:08 34.0 °F 17.3 °F 1014.8 in WSW 2.3 mph 2.3 mph 37 % 0.0 in
12:13 34.3 °F 17.5 °F 1015.8 in WSW 7.4 mph 7.4 mph 37 % 0.0 in
12:18 34.4 °F 17.2 °F 1015.8 in WSW 5.6 mph 5.6 mph 36 % 0.0 in
12:20 34.5 °F 17.3 °F 1015.8 in SW 5.6 mph 5.6 mph 36 % 0.0 in
12:25 35.0 °F 16.8 °F 1015.8 in WSW 7.4 mph 7.4 mph 34 % 0.0 in
12:30 35.4 °F 17.2 °F 1015.8 in WSW 5.6 mph 5.8 mph 34 % 0.0 in
12:35 34.6 °F 16.0 °F 1015.8 in SE 9.3 mph 9.3 mph 33 % 0.0 in
12:40 34.9 °F 16.2 °F 1015.8 in SW 7.4 mph 7.4 mph 33 % 0.0 in
12:45 34.9 °F 15.8 °F 1015.8 in SW 9.5 mph 9.5 mph 32 % 0.0 in
12:50 35.2 °F 16.0 °F 1015.8 in SW 7.4 mph 7.4 mph 32 % 0.0 in
12:55 35.3 °F 15.6 °F 1015.8 in SW 7.6 mph 7.6 mph 31 % 0.0 in
13:00 35.4 °F 15.7 °F 1015.8 in WSW 5.8 mph 5.8 mph 31 % 0.0 in
13:05 35.4 °F 15.7 °F 1015.8 in SW 9.3 mph 9.3 mph 31 % 0.0 in
13:10 35.3 °F 15.6 °F 1015.8 in WSW 13.0 mph 13.0 mph 31 % 0.0 in
13:15 35.9 °F 16.6 °F 1015.8 in South 7.4 mph 7.4 mph 32 % 0.0 in
13:20 35.9 °F 16.1 °F 1015.8 in West 13.0 mph 13.0 mph 31 % 0.0 in
13:25 35.5 °F 15.8 °F 1015.8 in WSW 13.0 mph 13.0 mph 31 % 0.0 in
13:30 35.5 °F 16.3 °F 1014.8 in SW 9.3 mph 9.3 mph 32 % 0.0 in
13:35 35.8 °F 16.1 °F 1014.8 in SW 11.9 mph 11.9 mph 31 % 0.0 in
13:40 35.7 °F 16.4 °F 1014.8 in SSW 11.1 mph 11.1 mph 32 % 0.0 in
13:45 35.4 °F 15.2 °F 1014.8 in South 16.7 mph 16.7 mph 30 % 0.0 in
13:50 35.2 °F 15.5 °F 1014.8 in WSW 13.0 mph 13.0 mph 31 % 0.0 in
13:51 35.1 °F 15.4 °F 1014.8 in SW 15.8 mph 15.8 mph 31 % 0.0 in
13:56 35.1 °F 15.4 °F 1014.8 in SW 18.5 mph 18.5 mph 31 % 0.0 in
14:01 35.1 °F 15.9 °F 1015.8 in WSW 13.0 mph 13.0 mph 32 % 0.0 in
14:06 34.9 °F 16.2 °F 1015.8 in SSW 17.2 mph 17.2 mph 33 % 0.0 in
14:11 34.9 °F 16.2 °F 1015.8 in WSW 9.3 mph 9.3 mph 33 % 0.0 in
14:16 35.1 °F 15.9 °F 1015.8 in SSW 20.4 mph 20.4 mph 32 % 0.0 in
14:21 34.4 °F 15.8 °F 1015.8 in SW 20.4 mph 20.4 mph 33 % 0.0 in
14:26 34.3 °F 15.7 °F 1015.8 in SW 22.2 mph 22.2 mph 33 % 0.0 in
14:31 34.5 °F 15.9 °F 1014.8 in West 13.0 mph 13.0 mph 33 % 0.0 in
14:36 34.4 °F 15.8 °F 1014.8 in SSE 11.1 mph 11.1 mph 33 % 0.0 in
14:41 34.5 °F 15.4 °F 1014.8 in SW 16.7 mph 16.7 mph 32 % 0.0 in
14:46 34.5 °F 15.4 °F 1014.8 in WSW 14.8 mph 14.8 mph 32 % 0.0 in
14:51 34.5 °F 15.4 °F 1014.8 in SW 20.4 mph 20.4 mph 32 % 0.0 in
14:56 34.0 °F 15.0 °F 1014.8 in SW 18.5 mph 18.5 mph 32 % 0.0 in
15:01 34.1 °F 15.1 °F 1014.8 in West 15.8 mph 15.8 mph 32 % 0.0 in
15:06 34.2 °F 15.2 °F 1014.8 in SW 13.0 mph 13.0 mph 32 % 0.0 in
15:11 34.1 °F 15.1 °F 1014.8 in WSW 16.7 mph 16.7 mph 32 % 0.0 in
15:16 34.2 °F 15.2 °F 1014.8 in SSW 16.7 mph 16.7 mph 32 % 0.0 in
15:21 33.9 °F 14.9 °F 1014.8 in WSW 18.5 mph 18.5 mph 32 % 0.0 in
15:26 34.1 °F 14.6 °F 1014.8 in SW 16.9 mph 16.9 mph 31 % 0.0 in
15:31 34.2 °F 14.7 °F 1014.8 in SSW 13.0 mph 13.0 mph 31 % 0.0 in
15:36 34.5 °F 14.4 °F 1014.8 in South 11.1 mph 11.1 mph 30 % 0.0 in
15:41 33.9 °F 13.9 °F 1014.8 in WSW 16.7 mph 16.7 mph 30 % 0.0 in
15:46 34.4 °F 14.3 °F 1014.8 in WSW 13.0 mph 13.0 mph 30 % 0.0 in
15:51 34.1 °F 14.1 °F 1014.8 in SSW 20.9 mph 20.9 mph 30 % 0.0 in
15:56 34.1 °F 14.1 °F 1014.8 in SW 11.1 mph 11.1 mph 30 % 0.0 in
16:01 33.8 °F 13.8 °F 1014.8 in SSW 16.7 mph 16.7 mph 30 % 0.0 in
16:06 33.6 °F 14.1 °F 1014.8 in WSW 14.8 mph 14.8 mph 31 % 0.0 in
16:11 33.4 °F 13.9 °F 1014.8 in WSW 16.7 mph 16.7 mph 31 % 0.0 in
16:16 33.5 °F 14.1 °F 1014.8 in SW 22.2 mph 22.2 mph 31 % 0.0 in
16:21 33.4 °F 13.9 °F 1014.8 in South 16.7 mph 16.7 mph 31 % 0.0 in
16:26 33.2 °F 13.3 °F 1014.8 in SW 22.2 mph 22.2 mph 30 % 0.0 in
16:31 32.9 °F 13.1 °F 1014.8 in South 20.4 mph 20.4 mph 30 % 0.0 in
16:36 32.8 °F 13.4 °F 1014.8 in SSW 9.7 mph 9.7 mph 31 % 0.0 in
16:41 32.4 °F 13.1 °F 1014.8 in SW 22.2 mph 22.2 mph 31 % 0.0 in
16:46 32.9 °F 13.6 °F 1014.8 in SW 14.8 mph 14.8 mph 31 % 0.0 in
16:51 32.8 °F 13.4 °F 1014.8 in West 16.4 mph 16.4 mph 31 % 0.0 in
16:56 32.7 °F 13.3 °F 1014.8 in SW 14.8 mph 14.8 mph 31 % 0.0 in
17:01 32.3 °F 13.0 °F 1015.8 in South 22.2 mph 22.2 mph 31 % 0.0 in
17:06 32.3 °F 13.0 °F 1015.8 in SSW 20.4 mph 20.4 mph 31 % 0.0 in
17:11 32.3 °F 13.0 °F 1015.8 in SSW 13.0 mph 13.0 mph 31 % 0.0 in
17:16 32.0 °F 12.8 °F 1015.8 in SW 13.0 mph 13.0 mph 31 % 0.0 in
17:21 31.8 °F 12.1 °F 1015.8 in SW 16.7 mph 16.7 mph 30 % 0.0 in
17:26 31.8 °F 12.6 °F 1015.8 in SW 16.7 mph 16.7 mph 31 % 0.0 in
17:31 31.7 °F 12.0 °F 1015.8 in WSW 9.5 mph 9.5 mph 30 % 0.0 in
17:36 31.9 °F 12.7 °F 1015.8 in WSW 21.2 mph 21.2 mph 31 % 0.0 in
17:41 31.8 °F 12.6 °F 1015.8 in SW 20.4 mph 20.4 mph 31 % 0.0 in
17:46 31.3 °F 11.7 °F 1014.8 in SW 18.5 mph 18.5 mph 30 % 0.0 in
17:51 31.5 °F 11.8 °F 1014.8 in South 14.8 mph 14.8 mph 30 % 0.0 in
17:56 31.6 °F 12.4 °F 1014.8 in SW 13.0 mph 13.0 mph 31 % 0.0 in
18:01 31.5 °F 12.3 °F 1014.8 in SSW 14.8 mph 14.8 mph 31 % 0.0 in
18:06 31.6 °F 12.4 °F 1014.8 in WNW 13.0 mph 13.0 mph 31 % 0.0 in
18:11 31.6 °F 12.4 °F 1014.8 in South 11.1 mph 11.1 mph 31 % 0.0 in
18:16 31.3 °F 12.6 °F 1014.8 in WSW 13.0 mph 13.0 mph 32 % 0.0 in
18:21 31.3 °F 12.6 °F 1014.8 in SW 9.3 mph 9.3 mph 32 % 0.0 in
18:26 31.3 °F 13.1 °F 1014.8 in SSW 13.0 mph 13.0 mph 33 % 0.0 in
18:31 31.3 °F 13.1 °F 1015.8 in South 9.3 mph 9.3 mph 33 % 0.0 in
18:36 31.0 °F 12.8 °F 1015.8 in SW 9.3 mph 9.3 mph 33 % 0.0 in
18:41 31.0 °F 12.8 °F 1015.8 in SW 18.5 mph 18.5 mph 33 % 0.0 in
18:46 31.0 °F 13.3 °F 1014.8 in NW 7.4 mph 7.4 mph 34 % 0.0 in
18:51 30.9 °F 12.8 °F 1014.8 in WSW 6.1 mph 6.1 mph 33 % 0.0 in
18:56 30.7 °F 12.6 °F 1014.8 in West 14.8 mph 14.8 mph 33 % 0.0 in
19:01 30.8 °F 12.7 °F 1014.8 in South 11.4 mph 11.4 mph 33 % 0.0 in
19:06 30.7 °F 13.1 °F 1014.8 in WSW 7.4 mph 7.4 mph 34 % 0.0 in
19:11 30.6 °F 12.9 °F 1014.8 in SSW 7.4 mph 7.4 mph 34 % 0.0 in
19:15 24.0 °F 13.2 °F 1017.8 in SW 4.8 mph 4.8 mph 51 % 0.0 in
19:16 30.5 °F 12.9 °F 1014.8 in SW 13.7 mph 13.7 mph 34 % 0.0 in
19:21 30.1 °F 12.5 °F 1014.8 in South 9.3 mph 9.3 mph 34 % 0.0 in
19:25 24.0 °F 13.8 °F 1017.8 in SW 1.6 mph 4.8 mph 53 % 0.0 in
19:26 30.0 °F 12.4 °F 1014.8 in SSE 9.3 mph 9.3 mph 34 % 0.0 in
19:31 29.7 °F 12.6 °F 1015.8 in SW 7.4 mph 7.4 mph 35 % 0.0 in
19:35 23.9 °F 14.0 °F 1017.8 in WSW 3.2 mph 4.8 mph 54 % 0.0 in
19:36 29.6 °F 12.5 °F 1015.8 in WSW 7.4 mph 7.4 mph 35 % 0.0 in
19:41 29.4 °F 12.8 °F 1015.8 in SE 3.7 mph 3.7 mph 36 % 0.0 in
19:45 23.8 °F 14.2 °F 1017.8 in SW 3.2 mph 4.8 mph 55 % 0.0 in
19:46 29.5 °F 12.8 °F 1015.8 in WSW 5.6 mph 5.6 mph 36 % 0.0 in
19:51 29.2 °F 12.6 °F 1015.8 in West 9.3 mph 9.3 mph 36 % 0.0 in
19:55 23.8 °F 14.5 °F 1017.8 in WSW 1.6 mph 4.8 mph 56 % 0.0 in
19:56 29.1 °F 12.5 °F 1015.8 in SW 2.3 mph   36 % 0.0 in
20:01 29.0 °F 12.4 °F 1015.8 in WSW 3.7 mph 3.7 mph 36 % 0.0 in
20:05 23.7 °F 14.4 °F 1017.8 in WSW 3.2 mph 4.8 mph 56 % 0.0 in
20:06 29.0 °F 12.8 °F 1015.8 in WSW 7.4 mph 7.4 mph 37 % 0.0 in
20:11 28.8 °F 13.1 °F 1015.8 in WSW 6.1 mph 6.1 mph 38 % 0.0 in
20:15 23.6 °F 14.6 °F 1017.8 in SW 3.2 mph 4.8 mph 57 % 0.0 in
20:16 28.6 °F 12.9 °F 1015.8 in South 11.1 mph 11.1 mph 38 % 0.0 in
20:21 28.4 °F 12.7 °F 1015.8 in SW 11.1 mph 11.1 mph 38 % 0.0 in
20:25 23.5 °F 14.2 °F 1017.8 in SW 4.8 mph 6.4 mph 56 % 0.0 in
20:26 28.3 °F 13.0 °F 1015.8 in SW 5.3 mph 5.3 mph 39 % 0.0 in
20:31 28.2 °F 12.9 °F 1015.8 in SW 5.6 mph 5.6 mph 39 % 0.0 in
20:35 23.5 °F 14.2 °F 1017.8 in SW 4.8 mph 6.4 mph 56 % 0.0 in
20:36 28.0 °F 12.8 °F 1015.8 in SW 7.4 mph 7.4 mph 39 % 0.0 in
20:41 27.9 °F 12.7 °F 1015.8 in SW 7.4 mph 7.4 mph 39 % 0.0 in
20:45 23.5 °F 14.2 °F 1017.8 in SW 3.2 mph 4.8 mph 56 % 0.0 in
20:46 27.7 °F 12.5 °F 1015.8 in SW 9.3 mph 9.3 mph 39 % 0.0 in
20:48 27.7 °F 12.5 °F 1015.8 in SW 7.4 mph 7.4 mph 39 % 0.0 in
20:53 27.5 °F 12.3 °F 1015.8 in West 9.5 mph 9.5 mph 39 % 0.0 in
20:55 23.3 °F 14.3 °F 1016.8 in WSW 3.2 mph 4.8 mph 57 % 0.0 in
20:58 27.3 °F 12.1 °F 1015.8 in SW 7.4 mph 7.4 mph 39 % 0.0 in
21:03 27.1 °F 12.3 °F 1014.8 in SW 5.8 mph 5.8 mph 40 % 0.0 in
21:05 23.3 °F 14.3 °F 1017.8 in WSW 1.6 mph 3.2 mph 57 % 0.0 in
21:08 27.0 °F 12.6 °F 1014.8 in WSW 5.6 mph 5.6 mph 41 % 0.0 in
21:13 26.9 °F 12.9 °F 1014.8 in SW 7.4 mph 7.4 mph 42 % 0.0 in
21:15 23.2 °F 14.5 °F 1017.8 in WSW 3.2 mph 4.8 mph 58 % 0.0 in
21:18 26.7 °F 12.7 °F 1014.8 in SW 7.4 mph 7.4 mph 42 % 0.0 in
21:23 26.7 °F 12.7 °F 1014.8 in West 7.4 mph 7.4 mph 42 % 0.0 in
21:25 23.0 °F 14.3 °F 1016.8 in SW 3.2 mph 3.2 mph 58 % 0.0 in
21:28 26.6 °F 12.6 °F 1014.8 in WSW 5.6 mph 5.6 mph 42 % 0.0 in
21:33 26.5 °F 12.6 °F 1014.8 in SW 9.3 mph 9.3 mph 42 % 0.0 in
21:35 22.9 °F 14.4 °F 1017.8 in WSW 3.2 mph 3.2 mph 59 % 0.0 in
21:38 26.3 °F 12.4 °F 1014.8 in SW 6.1 mph 6.1 mph 42 % 0.0 in
21:43 26.2 °F 12.3 °F 1014.8 in SW 7.4 mph 7.4 mph 42 % 0.0 in
21:45 22.9 °F 14.4 °F 1017.8 in WSW 3.2 mph 4.8 mph 59 % 0.0 in
21:48 26.1 °F 12.6 °F 1015.8 in West 9.7 mph 9.7 mph 43 % 0.0 in
21:53 26.0 °F 12.4 °F 1015.8 in SW 6.1 mph 6.1 mph 43 % 0.0 in
21:55 22.8 °F 14.4 °F 1017.8 in WSW 3.2 mph 3.2 mph 59 % 0.0 in
21:58 25.9 °F 12.3 °F 1015.8 in WSW 5.6 mph 5.6 mph 43 % 0.0 in
22:03 25.8 °F 12.3 °F 1015.8 in WSW 7.4 mph 7.4 mph 43 % 0.0 in
22:05 22.7 °F 14.6 °F 1017.8 in SW 3.2 mph 4.8 mph 60 % 0.0 in
22:08 25.7 °F 12.2 °F 1015.8 in SW 11.4 mph 11.4 mph 43 % 0.0 in
22:13 25.6 °F 12.1 °F 1015.8 in SW 7.4 mph 7.4 mph 43 % 0.0 in
22:15 22.6 °F 14.4 °F 1017.8 in SW 3.2 mph 4.8 mph 60 % 0.0 in
22:18 25.6 °F 12.1 °F 1014.8 in West 6.1 mph 6.1 mph 43 % 0.0 in
22:23 25.6 °F 12.4 °F 1014.8 in WSW 7.4 mph 7.4 mph 44 % 0.0 in
22:25 22.5 °F 14.6 °F 1017.8 in SW 1.6 mph 6.4 mph 61 % 0.0 in
22:28 25.5 °F 12.3 °F 1014.8 in South 3.9 mph 3.9 mph 44 % 0.0 in
22:30 25.5 °F 12.3 °F 1016.8 in WSW 3.7 mph 3.7 mph 44 % 0.0 in
22:35 25.4 °F 12.3 °F 1016.8 in West 7.4 mph 7.4 mph 44 % 0.0 in
22:40 25.3 °F 12.2 °F 1016.8 in WSW 7.4 mph 7.4 mph 44 % 0.0 in
22:45 25.2 °F 12.4 °F 1015.8 in SW 9.3 mph 9.3 mph 45 % 0.0 in
22:50 25.1 °F 12.3 °F 1015.8 in SW 9.3 mph 9.3 mph 45 % 0.0 in
22:55 25.0 °F 12.2 °F 1015.8 in SW 9.3 mph 9.3 mph 45 % 0.0 in
23:00 25.0 °F 12.6 °F 1016.8 in WSW 5.6 mph 5.6 mph 46 % 0.0 in
23:01 25.0 °F 12.6 °F 1016.8 in WSW 5.8 mph 5.8 mph 46 % 0.0 in
23:05 22.4 °F 14.8 °F 1016.8 in WSW 3.2 mph 4.8 mph 62 % 0.0 in
23:06 25.0 °F 12.6 °F 1016.8 in WSW 5.6 mph 5.6 mph 46 % 0.0 in
23:11 24.9 °F 12.8 °F 1016.8 in SW 7.4 mph 7.4 mph 47 % 0.0 in
23:15 22.3 °F 14.7 °F 1016.8 in WSW 1.6 mph 4.8 mph 62 % 0.0 in
23:16 24.8 °F 12.7 °F 1017.8 in SW 7.4 mph 7.4 mph 47 % 0.0 in
23:21 24.7 °F 12.6 °F 1017.8 in SW 5.0 mph 5.0 mph 47 % 0.0 in
23:25 22.4 °F 14.8 °F 1017.8 in WSW 3.2 mph 3.2 mph 62 % 0.0 in
23:26 24.6 °F 12.8 °F 1017.8 in SW 3.7 mph 3.7 mph 48 % 0.0 in
23:31 24.6 °F 12.8 °F 1017.8 in SW 3.7 mph 3.7 mph 48 % 0.0 in
23:35 22.5 °F 14.6 °F 1017.8 in West 3.2 mph 4.8 mph 61 % 0.0 in
23:36 24.5 °F 12.8 °F 1017.8 in West 5.6 mph 5.6 mph 48 % 0.0 in
23:41 24.5 °F 12.8 °F 1017.8 in WSW 3.7 mph 3.7 mph 48 % 0.0 in
23:45 22.5 °F 14.6 °F 1017.8 in West 4.8 mph 4.8 mph 61 % 0.0 in
23:46 24.5 °F 13.1 °F 1017.8 in West 3.7 mph 3.7 mph 49 % 0.0 in
23:51 24.4 °F 13.0 °F 1017.8 in WSW 5.6 mph 5.6 mph 49 % 0.0 in
23:55 22.4 °F 14.8 °F 1017.8 in West 3.2 mph 4.8 mph 62 % 0.0 in
23:56 24.3 °F 13.2 °F 1017.8 in SW 3.9 mph 3.9 mph 50 % 0.0 in
Meteo Sesrovires
Elogis d' Weather Underground - 3.5 mb

Guio original per  Jim McMurry - jmcmurry@mwt.net Adaptat per a la plantilla per  Wim van der Kuil - Leuven-Template.eu

Trobareu la nostra informacio del temps tambe a:

Weather Underground

AWEKAS